sensor_id;sensor_type;location;lat;lon;timestamp;P1;durP1;ratioP1;P2;durP2;ratioP2
21848;SDS011;11089;49.852;19.700;2023-04-24T00:00:04;7.60;;;4.72;;
21848;SDS011;11089;49.852;19.700;2023-04-24T00:03:06;7.05;;;5.10;;
21848;SDS011;11089;49.852;19.700;2023-04-24T00:06:08;6.32;;;4.78;;
21848;SDS011;11089;49.852;19.700;2023-04-24T00:09:09;7.10;;;5.20;;
21848;SDS011;11089;49.852;19.700;2023-04-24T00:12:10;5.32;;;4.65;;
21848;SDS011;11089;49.852;19.700;2023-04-24T00:15:11;8.25;;;5.25;;
21848;SDS011;11089;49.852;19.700;2023-04-24T00:18:12;7.75;;;4.80;;
21848;SDS011;11089;49.852;19.700;2023-04-24T00:21:14;7.28;;;4.90;;
21848;SDS011;11089;49.852;19.700;2023-04-24T00:24:17;9.05;;;5.00;;
21848;SDS011;11089;49.852;19.700;2023-04-24T00:27:18;5.82;;;4.60;;
21848;SDS011;11089;49.852;19.700;2023-04-24T00:30:19;6.68;;;4.38;;
21848;SDS011;11089;49.852;19.700;2023-04-24T00:33:20;7.47;;;4.55;;
21848;SDS011;11089;49.852;19.700;2023-04-24T00:36:21;5.85;;;4.75;;
21848;SDS011;11089;49.852;19.700;2023-04-24T00:39:22;7.68;;;4.88;;
21848;SDS011;11089;49.852;19.700;2023-04-24T00:42:23;6.50;;;4.70;;
21848;SDS011;11089;49.852;19.700;2023-04-24T00:45:24;6.88;;;4.57;;
21848;SDS011;11089;49.852;19.700;2023-04-24T00:48:25;10.10;;;4.88;;
21848;SDS011;11089;49.852;19.700;2023-04-24T00:51:27;6.95;;;5.30;;
21848;SDS011;11089;49.852;19.700;2023-04-24T00:54:28;5.93;;;4.55;;
21848;SDS011;11089;49.852;19.700;2023-04-24T00:57:30;8.15;;;4.40;;
21848;SDS011;11089;49.852;19.700;2023-04-24T01:00:31;7.18;;;4.88;;
21848;SDS011;11089;49.852;19.700;2023-04-24T01:03:32;7.03;;;5.00;;
21848;SDS011;11089;49.852;19.700;2023-04-24T01:06:38;8.95;;;5.15;;
21848;SDS011;11089;49.852;19.700;2023-04-24T01:09:40;7.80;;;4.63;;
21848;SDS011;11089;49.852;19.700;2023-04-24T01:12:44;7.05;;;5.07;;
21848;SDS011;11089;49.852;19.700;2023-04-24T01:15:45;5.95;;;4.65;;
21848;SDS011;11089;49.852;19.700;2023-04-24T01:18:46;10.50;;;5.10;;
21848;SDS011;11089;49.852;19.700;2023-04-24T01:21:48;9.70;;;5.00;;
21848;SDS011;11089;49.852;19.700;2023-04-24T01:24:53;8.88;;;5.10;;
21848;SDS011;11089;49.852;19.700;2023-04-24T01:27:54;7.82;;;5.10;;
21848;SDS011;11089;49.852;19.700;2023-04-24T01:30:56;6.43;;;4.75;;
21848;SDS011;11089;49.852;19.700;2023-04-24T01:33:57;7.90;;;5.20;;
21848;SDS011;11089;49.852;19.700;2023-04-24T01:36:58;6.30;;;5.22;;
21848;SDS011;11089;49.852;19.700;2023-04-24T01:39:59;6.88;;;4.53;;
21848;SDS011;11089;49.852;19.700;2023-04-24T01:43:00;8.43;;;4.93;;
21848;SDS011;11089;49.852;19.700;2023-04-24T01:46:01;7.13;;;5.03;;
21848;SDS011;11089;49.852;19.700;2023-04-24T01:49:02;7.88;;;5.18;;
21848;SDS011;11089;49.852;19.700;2023-04-24T01:52:03;7.22;;;5.22;;
21848;SDS011;11089;49.852;19.700;2023-04-24T01:55:05;7.25;;;4.88;;
21848;SDS011;11089;49.852;19.700;2023-04-24T01:58:07;7.45;;;4.60;;
21848;SDS011;11089;49.852;19.700;2023-04-24T02:01:08;6.82;;;4.60;;
21848;SDS011;11089;49.852;19.700;2023-04-24T02:04:09;4.93;;;4.20;;
21848;SDS011;11089;49.852;19.700;2023-04-24T02:07:10;5.68;;;4.22;;
21848;SDS011;11089;49.852;19.700;2023-04-24T02:10:11;6.75;;;4.82;;
21848;SDS011;11089;49.852;19.700;2023-04-24T02:13:12;6.03;;;4.47;;
21848;SDS011;11089;49.852;19.700;2023-04-24T02:16:13;8.65;;;4.70;;
21848;SDS011;11089;49.852;19.700;2023-04-24T02:19:14;7.25;;;4.65;;
21848;SDS011;11089;49.852;19.700;2023-04-24T02:22:15;5.65;;;4.30;;
21848;SDS011;11089;49.852;19.700;2023-04-24T02:25:16;6.03;;;4.65;;
21848;SDS011;11089;49.852;19.700;2023-04-24T02:28:17;7.05;;;4.65;;
21848;SDS011;11089;49.852;19.700;2023-04-24T02:31:18;6.75;;;4.78;;
21848;SDS011;11089;49.852;19.700;2023-04-24T02:34:19;7.15;;;4.90;;
21848;SDS011;11089;49.852;19.700;2023-04-24T02:37:20;7.35;;;5.07;;
21848;SDS011;11089;49.852;19.700;2023-04-24T02:40:21;10.18;;;5.53;;
21848;SDS011;11089;49.852;19.700;2023-04-24T02:43:22;7.90;;;4.93;;
21848;SDS011;11089;49.852;19.700;2023-04-24T02:46:23;6.72;;;4.57;;
21848;SDS011;11089;49.852;19.700;2023-04-24T02:49:24;8.32;;;4.70;;
21848;SDS011;11089;49.852;19.700;2023-04-24T02:52:26;8.82;;;4.95;;
21848;SDS011;11089;49.852;19.700;2023-04-24T02:55:27;8.35;;;4.75;;
21848;SDS011;11089;49.852;19.700;2023-04-24T02:58:28;7.80;;;5.10;;
21848;SDS011;11089;49.852;19.700;2023-04-24T03:01:29;7.00;;;5.00;;
21848;SDS011;11089;49.852;19.700;2023-04-24T03:04:30;6.97;;;4.78;;
21848;SDS011;11089;49.852;19.700;2023-04-24T03:07:32;9.80;;;5.07;;
21848;SDS011;11089;49.852;19.700;2023-04-24T03:10:33;6.97;;;4.97;;
21848;SDS011;11089;49.852;19.700;2023-04-24T03:13:34;7.15;;;4.95;;
21848;SDS011;11089;49.852;19.700;2023-04-24T03:16:35;9.27;;;5.75;;
21848;SDS011;11089;49.852;19.700;2023-04-24T03:19:35;8.52;;;5.18;;
21848;SDS011;11089;49.852;19.700;2023-04-24T03:22:36;8.25;;;4.93;;
21848;SDS011;11089;49.852;19.700;2023-04-24T03:25:37;5.68;;;4.50;;
21848;SDS011;11089;49.852;19.700;2023-04-24T03:28:39;8.57;;;4.90;;
21848;SDS011;11089;49.852;19.700;2023-04-24T03:31:39;8.38;;;4.85;;
21848;SDS011;11089;49.852;19.700;2023-04-24T03:34:40;6.97;;;5.05;;
21848;SDS011;11089;49.852;19.700;2023-04-24T03:37:41;8.50;;;5.35;;
21848;SDS011;11089;49.852;19.700;2023-04-24T03:40:42;6.13;;;4.78;;
21848;SDS011;11089;49.852;19.700;2023-04-24T03:43:43;7.25;;;5.20;;
21848;SDS011;11089;49.852;19.700;2023-04-24T03:46:44;6.80;;;5.13;;
21848;SDS011;11089;49.852;19.700;2023-04-24T03:49:45;11.38;;;4.80;;
21848;SDS011;11089;49.852;19.700;2023-04-24T03:52:46;6.80;;;4.68;;
21848;SDS011;11089;49.852;19.700;2023-04-24T03:55:47;6.05;;;4.60;;
21848;SDS011;11089;49.852;19.700;2023-04-24T03:58:48;8.02;;;4.80;;
21848;SDS011;11089;49.852;19.700;2023-04-24T04:01:49;7.75;;;5.22;;
21848;SDS011;11089;49.852;19.700;2023-04-24T04:04:50;5.97;;;4.63;;
21848;SDS011;11089;49.852;19.700;2023-04-24T04:07:51;7.53;;;5.00;;
21848;SDS011;11089;49.852;19.700;2023-04-24T04:10:51;6.95;;;5.00;;
21848;SDS011;11089;49.852;19.700;2023-04-24T04:13:52;7.95;;;5.40;;
21848;SDS011;11089;49.852;19.700;2023-04-24T04:16:53;6.95;;;5.50;;
21848;SDS011;11089;49.852;19.700;2023-04-24T04:19:54;7.00;;;4.35;;
21848;SDS011;11089;49.852;19.700;2023-04-24T04:22:56;5.35;;;4.65;;
21848;SDS011;11089;49.852;19.700;2023-04-24T04:25:57;7.60;;;4.75;;
21848;SDS011;11089;49.852;19.700;2023-04-24T04:28:59;6.80;;;4.95;;
21848;SDS011;11089;49.852;19.700;2023-04-24T04:32:03;7.95;;;4.82;;
21848;SDS011;11089;49.852;19.700;2023-04-24T04:35:04;7.38;;;4.82;;
21848;SDS011;11089;49.852;19.700;2023-04-24T04:38:05;5.72;;;4.68;;
21848;SDS011;11089;49.852;19.700;2023-04-24T04:41:08;7.28;;;4.90;;
21848;SDS011;11089;49.852;19.700;2023-04-24T04:44:09;7.72;;;5.20;;
21848;SDS011;11089;49.852;19.700;2023-04-24T04:47:10;6.22;;;4.47;;
21848;SDS011;11089;49.852;19.700;2023-04-24T04:50:11;8.35;;;4.80;;
21848;SDS011;11089;49.852;19.700;2023-04-24T04:53:12;6.28;;;4.63;;
21848;SDS011;11089;49.852;19.700;2023-04-24T04:56:13;7.75;;;5.18;;
21848;SDS011;11089;49.852;19.700;2023-04-24T04:59:14;7.53;;;5.00;;
21848;SDS011;11089;49.852;19.700;2023-04-24T05:02:15;8.18;;;5.00;;
21848;SDS011;11089;49.852;19.700;2023-04-24T05:05:16;6.80;;;4.97;;
21848;SDS011;11089;49.852;19.700;2023-04-24T05:08:17;7.15;;;4.82;;
21848;SDS011;11089;49.852;19.700;2023-04-24T05:11:18;7.65;;;5.00;;
21848;SDS011;11089;49.852;19.700;2023-04-24T05:14:19;6.05;;;4.55;;
21848;SDS011;11089;49.852;19.700;2023-04-24T05:17:21;6.90;;;4.80;;
21848;SDS011;11089;49.852;19.700;2023-04-24T05:20:22;8.68;;;5.15;;
21848;SDS011;11089;49.852;19.700;2023-04-24T05:23:23;7.55;;;5.32;;
21848;SDS011;11089;49.852;19.700;2023-04-24T05:26:23;5.82;;;4.70;;
21848;SDS011;11089;49.852;19.700;2023-04-24T05:29:25;7.32;;;4.95;;
21848;SDS011;11089;49.852;19.700;2023-04-24T05:32:26;6.70;;;4.75;;
21848;SDS011;11089;49.852;19.700;2023-04-24T05:35:27;7.70;;;4.88;;
21848;SDS011;11089;49.852;19.700;2023-04-24T05:38:28;7.68;;;5.00;;
21848;SDS011;11089;49.852;19.700;2023-04-24T05:41:29;8.23;;;5.30;;
21848;SDS011;11089;49.852;19.700;2023-04-24T05:44:30;10.20;;;5.93;;
21848;SDS011;11089;49.852;19.700;2023-04-24T05:47:31;7.13;;;5.53;;
21848;SDS011;11089;49.852;19.700;2023-04-24T05:50:32;8.07;;;5.38;;
21848;SDS011;11089;49.852;19.700;2023-04-24T05:53:33;7.15;;;5.55;;
21848;SDS011;11089;49.852;19.700;2023-04-24T05:56:34;9.32;;;5.78;;
21848;SDS011;11089;49.852;19.700;2023-04-24T05:59:36;7.90;;;5.43;;
21848;SDS011;11089;49.852;19.700;2023-04-24T06:02:41;6.13;;;5.10;;
21848;SDS011;11089;49.852;19.700;2023-04-24T06:05:42;8.13;;;5.93;;
21848;SDS011;11089;49.852;19.700;2023-04-24T06:08:42;8.38;;;5.70;;
21848;SDS011;11089;49.852;19.700;2023-04-24T06:11:44;9.45;;;6.43;;
21848;SDS011;11089;49.852;19.700;2023-04-24T06:14:45;9.63;;;6.32;;
21848;SDS011;11089;49.852;19.700;2023-04-24T06:17:47;9.38;;;6.03;;
21848;SDS011;11089;49.852;19.700;2023-04-24T06:20:48;8.90;;;5.35;;
21848;SDS011;11089;49.852;19.700;2023-04-24T06:23:49;6.72;;;5.55;;
21848;SDS011;11089;49.852;19.700;2023-04-24T06:26:50;8.65;;;5.55;;
21848;SDS011;11089;49.852;19.700;2023-04-24T06:29:51;11.07;;;5.97;;
21848;SDS011;11089;49.852;19.700;2023-04-24T06:32:54;10.38;;;6.10;;
21848;SDS011;11089;49.852;19.700;2023-04-24T06:35:55;8.30;;;5.63;;
21848;SDS011;11089;49.852;19.700;2023-04-24T06:38:56;8.43;;;5.82;;
21848;SDS011;11089;49.852;19.700;2023-04-24T06:41:58;11.73;;;6.97;;
21848;SDS011;11089;49.852;19.700;2023-04-24T06:44:59;12.88;;;6.10;;
21848;SDS011;11089;49.852;19.700;2023-04-24T06:48:00;10.45;;;6.20;;
21848;SDS011;11089;49.852;19.700;2023-04-24T06:51:00;11.55;;;6.82;;
21848;SDS011;11089;49.852;19.700;2023-04-24T06:54:01;9.65;;;6.03;;
21848;SDS011;11089;49.852;19.700;2023-04-24T06:57:02;9.63;;;6.57;;
21848;SDS011;11089;49.852;19.700;2023-04-24T07:00:04;11.30;;;6.65;;
21848;SDS011;11089;49.852;19.700;2023-04-24T07:03:06;8.77;;;5.80;;
21848;SDS011;11089;49.852;19.700;2023-04-24T07:06:08;11.30;;;5.40;;
21848;SDS011;11089;49.852;19.700;2023-04-24T07:09:13;8.85;;;5.70;;
21848;SDS011;11089;49.852;19.700;2023-04-24T07:12:14;8.15;;;5.57;;
21848;SDS011;11089;49.852;19.700;2023-04-24T07:15:17;8.32;;;6.07;;
21848;SDS011;11089;49.852;19.700;2023-04-24T07:18:18;10.18;;;6.75;;
21848;SDS011;11089;49.852;19.700;2023-04-24T07:21:19;8.80;;;6.35;;
21848;SDS011;11089;49.852;19.700;2023-04-24T07:24:20;12.00;;;6.60;;
21848;SDS011;11089;49.852;19.700;2023-04-24T07:27:21;8.63;;;5.97;;
21848;SDS011;11089;49.852;19.700;2023-04-24T07:30:22;7.43;;;5.72;;
21848;SDS011;11089;49.852;19.700;2023-04-24T07:33:23;7.75;;;5.47;;
21848;SDS011;11089;49.852;19.700;2023-04-24T07:36:24;7.85;;;5.07;;
21848;SDS011;11089;49.852;19.700;2023-04-24T07:39:26;7.53;;;5.28;;
21848;SDS011;11089;49.852;19.700;2023-04-24T07:42:28;7.03;;;5.13;;
21848;SDS011;11089;49.852;19.700;2023-04-24T07:45:30;7.07;;;5.10;;
21848;SDS011;11089;49.852;19.700;2023-04-24T07:48:33;7.28;;;5.05;;
21848;SDS011;11089;49.852;19.700;2023-04-24T07:51:35;6.20;;;5.15;;
21848;SDS011;11089;49.852;19.700;2023-04-24T07:54:38;6.53;;;4.90;;
21848;SDS011;11089;49.852;19.700;2023-04-24T07:57:39;10.15;;;6.22;;
21848;SDS011;11089;49.852;19.700;2023-04-24T08:00:40;8.57;;;5.20;;
21848;SDS011;11089;49.852;19.700;2023-04-24T08:03:41;8.88;;;5.25;;
21848;SDS011;11089;49.852;19.700;2023-04-24T08:06:42;9.57;;;6.47;;
21848;SDS011;11089;49.852;19.700;2023-04-24T08:09:43;10.57;;;5.60;;
21848;SDS011;11089;49.852;19.700;2023-04-24T08:12:44;8.48;;;4.85;;
21848;SDS011;11089;49.852;19.700;2023-04-24T08:15:45;7.38;;;5.60;;
21848;SDS011;11089;49.852;19.700;2023-04-24T08:18:46;7.03;;;5.15;;
21848;SDS011;11089;49.852;19.700;2023-04-24T08:21:47;6.68;;;4.88;;
21848;SDS011;11089;49.852;19.700;2023-04-24T08:24:48;9.23;;;5.28;;
21848;SDS011;11089;49.852;19.700;2023-04-24T08:27:49;6.82;;;4.63;;
21848;SDS011;11089;49.852;19.700;2023-04-24T08:30:50;8.60;;;5.70;;
21848;SDS011;11089;49.852;19.700;2023-04-24T08:33:54;7.25;;;5.32;;
21848;SDS011;11089;49.852;19.700;2023-04-24T08:36:55;7.30;;;5.25;;
21848;SDS011;11089;49.852;19.700;2023-04-24T08:39:56;5.97;;;4.68;;
21848;SDS011;11089;49.852;19.700;2023-04-24T08:42:57;8.32;;;4.95;;
21848;SDS011;11089;49.852;19.700;2023-04-24T08:45:59;6.80;;;4.80;;
21848;SDS011;11089;49.852;19.700;2023-04-24T08:49:01;5.90;;;4.75;;
21848;SDS011;11089;49.852;19.700;2023-04-24T08:52:02;7.55;;;4.78;;
21848;SDS011;11089;49.852;19.700;2023-04-24T08:55:05;8.10;;;4.72;;
21848;SDS011;11089;49.852;19.700;2023-04-24T08:58:06;9.60;;;4.72;;
21848;SDS011;11089;49.852;19.700;2023-04-24T09:01:08;4.80;;;4.18;;
21848;SDS011;11089;49.852;19.700;2023-04-24T09:04:09;5.57;;;4.68;;
21848;SDS011;11089;49.852;19.700;2023-04-24T09:07:12;5.00;;;4.22;;
21848;SDS011;11089;49.852;19.700;2023-04-24T09:10:14;6.72;;;3.90;;
21848;SDS011;11089;49.852;19.700;2023-04-24T09:13:15;7.15;;;4.93;;
21848;SDS011;11089;49.852;19.700;2023-04-24T09:16:18;5.85;;;4.22;;
21848;SDS011;11089;49.852;19.700;2023-04-24T09:19:20;6.20;;;3.88;;
21848;SDS011;11089;49.852;19.700;2023-04-24T09:22:22;3.80;;;3.33;;
21848;SDS011;11089;49.852;19.700;2023-04-24T09:25:33;6.80;;;4.30;;
21848;SDS011;11089;49.852;19.700;2023-04-24T09:28:39;7.10;;;4.30;;
21848;SDS011;11089;49.852;19.700;2023-04-24T09:31:40;4.22;;;3.70;;
21848;SDS011;11089;49.852;19.700;2023-04-24T09:34:41;4.70;;;3.97;;
21848;SDS011;11089;49.852;19.700;2023-04-24T09:37:45;7.50;;;4.15;;
21848;SDS011;11089;49.852;19.700;2023-04-24T09:40:47;5.15;;;3.83;;
21848;SDS011;11089;49.852;19.700;2023-04-24T09:43:48;7.13;;;4.28;;
21848;SDS011;11089;49.852;19.700;2023-04-24T09:46:55;4.30;;;3.90;;
21848;SDS011;11089;49.852;19.700;2023-04-24T09:49:57;6.57;;;4.60;;
21848;SDS011;11089;49.852;19.700;2023-04-24T09:53:01;4.57;;;4.18;;
21848;SDS011;11089;49.852;19.700;2023-04-24T09:56:07;4.47;;;3.47;;
21848;SDS011;11089;49.852;19.700;2023-04-24T09:59:09;4.18;;;3.78;;
21848;SDS011;11089;49.852;19.700;2023-04-24T10:02:19;3.83;;;3.40;;
21848;SDS011;11089;49.852;19.700;2023-04-24T10:05:24;4.43;;;3.97;;
21848;SDS011;11089;49.852;19.700;2023-04-24T10:08:33;7.18;;;4.20;;
21848;SDS011;11089;49.852;19.700;2023-04-24T10:11:35;6.05;;;3.83;;
21848;SDS011;11089;49.852;19.700;2023-04-24T10:14:37;5.05;;;3.63;;
21848;SDS011;11089;49.852;19.700;2023-04-24T10:17:38;5.28;;;4.32;;
21848;SDS011;11089;49.852;19.700;2023-04-24T10:20:40;8.15;;;4.47;;
21848;SDS011;11089;49.852;19.700;2023-04-24T10:23:41;4.75;;;4.20;;
21848;SDS011;11089;49.852;19.700;2023-04-24T10:26:43;4.30;;;3.90;;
21848;SDS011;11089;49.852;19.700;2023-04-24T10:29:46;5.45;;;3.40;;
21848;SDS011;11089;49.852;19.700;2023-04-24T10:32:49;5.38;;;4.05;;
21848;SDS011;11089;49.852;19.700;2023-04-24T10:35:50;4.78;;;3.85;;
21848;SDS011;11089;49.852;19.700;2023-04-24T10:38:52;4.50;;;3.90;;
21848;SDS011;11089;49.852;19.700;2023-04-24T10:41:56;4.70;;;3.90;;
21848;SDS011;11089;49.852;19.700;2023-04-24T10:44:57;8.40;;;4.32;;
21848;SDS011;11089;49.852;19.700;2023-04-24T10:47:59;5.10;;;3.78;;
21848;SDS011;11089;49.852;19.700;2023-04-24T10:51:02;4.03;;;3.30;;
21848;SDS011;11089;49.852;19.700;2023-04-24T10:54:19;4.30;;;3.47;;
21848;SDS011;11089;49.852;19.700;2023-04-24T10:57:27;7.10;;;3.60;;
21848;SDS011;11089;49.852;19.700;2023-04-24T11:00:30;4.00;;;3.25;;
21848;SDS011;11089;49.852;19.700;2023-04-24T11:03:32;4.78;;;3.47;;
21848;SDS011;11089;49.852;19.700;2023-04-24T11:06:35;4.90;;;3.42;;
21848;SDS011;11089;49.852;19.700;2023-04-24T11:09:37;5.28;;;3.92;;
21848;SDS011;11089;49.852;19.700;2023-04-24T11:12:40;3.28;;;2.70;;
21848;SDS011;11089;49.852;19.700;2023-04-24T11:15:41;5.10;;;3.20;;
21848;SDS011;11089;49.852;19.700;2023-04-24T11:18:43;6.60;;;4.88;;
21848;SDS011;11089;49.852;19.700;2023-04-24T11:21:53;5.28;;;4.20;;
21848;SDS011;11089;49.852;19.700;2023-04-24T11:24:56;6.82;;;3.83;;
21848;SDS011;11089;49.852;19.700;2023-04-24T11:28:02;8.70;;;4.25;;
21848;SDS011;11089;49.852;19.700;2023-04-24T11:34:34;6.82;;;4.80;;
21848;SDS011;11089;49.852;19.700;2023-04-24T11:40:39;7.25;;;4.90;;
21848;SDS011;11089;49.852;19.700;2023-04-24T11:43:40;5.80;;;4.50;;
21848;SDS011;11089;49.852;19.700;2023-04-24T11:46:42;8.32;;;5.50;;
21848;SDS011;11089;49.852;19.700;2023-04-24T11:49:43;7.72;;;5.07;;
21848;SDS011;11089;49.852;19.700;2023-04-24T11:52:45;13.45;;;5.45;;
21848;SDS011;11089;49.852;19.700;2023-04-24T11:55:47;7.28;;;5.80;;
21848;SDS011;11089;49.852;19.700;2023-04-24T11:58:48;8.10;;;4.78;;
21848;SDS011;11089;49.852;19.700;2023-04-24T12:01:54;9.80;;;5.13;;
21848;SDS011;11089;49.852;19.700;2023-04-24T12:04:55;7.38;;;5.10;;
21848;SDS011;11089;49.852;19.700;2023-04-24T12:07:56;11.15;;;4.72;;
21848;SDS011;11089;49.852;19.700;2023-04-24T12:10:57;10.88;;;5.28;;
21848;SDS011;11089;49.852;19.700;2023-04-24T12:14:09;5.47;;;4.88;;
21848;SDS011;11089;49.852;19.700;2023-04-24T12:17:11;7.20;;;4.97;;
21848;SDS011;11089;49.852;19.700;2023-04-24T12:20:12;5.78;;;4.70;;
21848;SDS011;11089;49.852;19.700;2023-04-24T12:23:14;4.93;;;4.15;;
21848;SDS011;11089;49.852;19.700;2023-04-24T12:26:18;8.00;;;4.57;;
21848;SDS011;11089;49.852;19.700;2023-04-24T12:29:20;5.85;;;4.43;;
21848;SDS011;11089;49.852;19.700;2023-04-24T12:32:21;5.63;;;4.35;;
21848;SDS011;11089;49.852;19.700;2023-04-24T12:35:23;9.48;;;4.55;;
21848;SDS011;11089;49.852;19.700;2023-04-24T12:38:27;9.60;;;4.35;;
21848;SDS011;11089;49.852;19.700;2023-04-24T12:41:48;6.28;;;4.30;;
21848;SDS011;11089;49.852;19.700;2023-04-24T12:44:58;8.27;;;5.00;;
21848;SDS011;11089;49.852;19.700;2023-04-24T12:48:00;6.40;;;4.38;;
21848;SDS011;11089;49.852;19.700;2023-04-24T12:51:01;4.07;;;3.65;;
21848;SDS011;11089;49.852;19.700;2023-04-24T12:54:02;5.68;;;3.60;;
21848;SDS011;11089;49.852;19.700;2023-04-24T12:57:03;4.50;;;3.78;;
21848;SDS011;11089;49.852;19.700;2023-04-24T13:00:05;4.32;;;3.92;;
21848;SDS011;11089;49.852;19.700;2023-04-24T13:03:07;4.05;;;3.42;;
21848;SDS011;11089;49.852;19.700;2023-04-24T13:06:08;6.97;;;3.83;;
21848;SDS011;11089;49.852;19.700;2023-04-24T13:09:09;5.10;;;4.57;;
21848;SDS011;11089;49.852;19.700;2023-04-24T13:12:11;9.02;;;6.38;;
21848;SDS011;11089;49.852;19.700;2023-04-24T13:15:12;6.70;;;4.50;;
21848;SDS011;11089;49.852;19.700;2023-04-24T13:18:13;5.30;;;4.32;;
21848;SDS011;11089;49.852;19.700;2023-04-24T13:21:14;6.40;;;5.13;;
21848;SDS011;11089;49.852;19.700;2023-04-24T13:24:15;11.45;;;7.10;;
21848;SDS011;11089;49.852;19.700;2023-04-24T13:27:17;9.30;;;5.90;;
21848;SDS011;11089;49.852;19.700;2023-04-24T13:30:18;15.07;;;8.93;;
21848;SDS011;11089;49.852;19.700;2023-04-24T13:33:19;10.68;;;8.52;;
21848;SDS011;11089;49.852;19.700;2023-04-24T13:36:20;5.45;;;4.30;;
21848;SDS011;11089;49.852;19.700;2023-04-24T13:39:22;5.47;;;4.45;;
21848;SDS011;11089;49.852;19.700;2023-04-24T13:42:23;4.75;;;4.25;;
21848;SDS011;11089;49.852;19.700;2023-04-24T13:45:24;3.97;;;3.58;;
21848;SDS011;11089;49.852;19.700;2023-04-24T13:48:25;4.32;;;3.50;;
21848;SDS011;11089;49.852;19.700;2023-04-24T13:51:26;3.83;;;3.42;;
21848;SDS011;11089;49.852;19.700;2023-04-24T13:54:27;3.80;;;3.20;;
21848;SDS011;11089;49.852;19.700;2023-04-24T13:57:28;3.22;;;2.92;;
21848;SDS011;11089;49.852;19.700;2023-04-24T14:00:31;3.67;;;2.83;;
21848;SDS011;11089;49.852;19.700;2023-04-24T14:03:33;3.17;;;2.88;;
21848;SDS011;11089;49.852;19.700;2023-04-24T14:06:34;3.63;;;2.75;;
21848;SDS011;11089;49.852;19.700;2023-04-24T14:09:34;3.35;;;3.05;;
21848;SDS011;11089;49.852;19.700;2023-04-24T14:12:35;2.83;;;2.53;;
21848;SDS011;11089;49.852;19.700;2023-04-24T14:15:37;3.17;;;2.60;;
21848;SDS011;11089;49.852;19.700;2023-04-24T14:18:38;3.13;;;2.65;;
21848;SDS011;11089;49.852;19.700;2023-04-24T14:21:39;3.40;;;2.50;;
21848;SDS011;11089;49.852;19.700;2023-04-24T14:24:40;4.13;;;3.00;;
21848;SDS011;11089;49.852;19.700;2023-04-24T14:27:41;3.50;;;3.15;;
21848;SDS011;11089;49.852;19.700;2023-04-24T14:30:42;5.22;;;2.45;;
21848;SDS011;11089;49.852;19.700;2023-04-24T14:33:43;3.72;;;2.80;;
21848;SDS011;11089;49.852;19.700;2023-04-24T14:36:45;5.05;;;2.85;;
21848;SDS011;11089;49.852;19.700;2023-04-24T14:39:46;4.72;;;2.60;;
21848;SDS011;11089;49.852;19.700;2023-04-24T14:42:47;5.45;;;2.53;;
21848;SDS011;11089;49.852;19.700;2023-04-24T14:45:48;2.50;;;2.03;;
21848;SDS011;11089;49.852;19.700;2023-04-24T14:48:50;3.33;;;2.00;;
21848;SDS011;11089;49.852;19.700;2023-04-24T14:51:51;5.97;;;2.10;;
21848;SDS011;11089;49.852;19.700;2023-04-24T14:54:51;3.15;;;2.35;;
21848;SDS011;11089;49.852;19.700;2023-04-24T14:57:52;3.60;;;2.40;;
21848;SDS011;11089;49.852;19.700;2023-04-24T15:00:53;3.65;;;2.75;;
21848;SDS011;11089;49.852;19.700;2023-04-24T15:03:54;3.53;;;2.55;;
21848;SDS011;11089;49.852;19.700;2023-04-24T15:06:55;2.97;;;2.28;;
21848;SDS011;11089;49.852;19.700;2023-04-24T15:09:56;3.30;;;2.85;;
21848;SDS011;11089;49.852;19.700;2023-04-24T15:12:57;3.60;;;3.08;;
21848;SDS011;11089;49.852;19.700;2023-04-24T15:15:58;4.18;;;3.20;;
21848;SDS011;11089;49.852;19.700;2023-04-24T15:18:59;3.80;;;2.80;;
21848;SDS011;11089;49.852;19.700;2023-04-24T15:22:01;4.25;;;3.13;;
21848;SDS011;11089;49.852;19.700;2023-04-24T15:25:02;4.32;;;2.95;;
21848;SDS011;11089;49.852;19.700;2023-04-24T15:28:03;3.90;;;2.70;;
21848;SDS011;11089;49.852;19.700;2023-04-24T15:31:05;2.70;;;2.15;;
21848;SDS011;11089;49.852;19.700;2023-04-24T15:34:06;2.58;;;2.33;;
21848;SDS011;11089;49.852;19.700;2023-04-24T15:37:07;2.42;;;2.10;;
21848;SDS011;11089;49.852;19.700;2023-04-24T15:40:08;3.15;;;2.50;;
21848;SDS011;11089;49.852;19.700;2023-04-24T15:43:11;2.45;;;2.10;;
21848;SDS011;11089;49.852;19.700;2023-04-24T15:46:12;2.28;;;1.90;;
21848;SDS011;11089;49.852;19.700;2023-04-24T15:49:13;2.80;;;2.20;;
21848;SDS011;11089;49.852;19.700;2023-04-24T15:52:14;3.05;;;2.30;;
21848;SDS011;11089;49.852;19.700;2023-04-24T15:55:15;2.95;;;2.70;;
21848;SDS011;11089;49.852;19.700;2023-04-24T15:58:16;3.25;;;2.78;;
21848;SDS011;11089;49.852;19.700;2023-04-24T16:01:18;4.07;;;3.38;;
21848;SDS011;11089;49.852;19.700;2023-04-24T16:04:19;4.25;;;3.60;;
21848;SDS011;11089;49.852;19.700;2023-04-24T16:07:20;4.55;;;3.17;;
21848;SDS011;11089;49.852;19.700;2023-04-24T16:10:21;4.85;;;3.58;;
21848;SDS011;11089;49.852;19.700;2023-04-24T16:13:22;4.50;;;3.30;;
21848;SDS011;11089;49.852;19.700;2023-04-24T16:16:23;4.75;;;3.80;;
21848;SDS011;11089;49.852;19.700;2023-04-24T16:19:24;4.75;;;3.60;;
21848;SDS011;11089;49.852;19.700;2023-04-24T16:22:25;4.55;;;3.85;;
21848;SDS011;11089;49.852;19.700;2023-04-24T16:25:26;5.03;;;3.60;;
21848;SDS011;11089;49.852;19.700;2023-04-24T16:28:27;4.75;;;3.70;;
21848;SDS011;11089;49.852;19.700;2023-04-24T16:31:29;7.20;;;4.63;;
21848;SDS011;11089;49.852;19.700;2023-04-24T16:34:30;5.03;;;3.97;;
21848;SDS011;11089;49.852;19.700;2023-04-24T16:37:31;5.85;;;3.78;;
21848;SDS011;11089;49.852;19.700;2023-04-24T16:40:32;5.05;;;3.47;;
21848;SDS011;11089;49.852;19.700;2023-04-24T16:43:33;4.90;;;4.00;;
21848;SDS011;11089;49.852;19.700;2023-04-24T16:46:39;6.85;;;4.28;;
21848;SDS011;11089;49.852;19.700;2023-04-24T16:49:40;6.47;;;3.95;;
21848;SDS011;11089;49.852;19.700;2023-04-24T16:52:42;5.15;;;3.75;;
21848;SDS011;11089;49.852;19.700;2023-04-24T16:55:43;4.85;;;3.70;;
21848;SDS011;11089;49.852;19.700;2023-04-24T16:58:44;5.55;;;4.03;;
21848;SDS011;11089;49.852;19.700;2023-04-24T17:01:45;5.95;;;4.35;;
21848;SDS011;11089;49.852;19.700;2023-04-24T17:04:47;4.47;;;3.92;;
21848;SDS011;11089;49.852;19.700;2023-04-24T17:07:48;6.30;;;4.43;;
21848;SDS011;11089;49.852;19.700;2023-04-24T17:10:49;5.82;;;4.30;;
21848;SDS011;11089;49.852;19.700;2023-04-24T17:13:50;9.55;;;6.05;;
21848;SDS011;11089;49.852;19.700;2023-04-24T17:16:51;10.07;;;6.40;;
21848;SDS011;11089;49.852;19.700;2023-04-24T17:19:52;10.13;;;6.38;;
21848;SDS011;11089;49.852;19.700;2023-04-24T17:22:53;11.50;;;6.97;;
21848;SDS011;11089;49.852;19.700;2023-04-24T17:25:54;10.32;;;6.35;;
21848;SDS011;11089;49.852;19.700;2023-04-24T17:28:55;11.85;;;7.05;;
21848;SDS011;11089;49.852;19.700;2023-04-24T17:31:56;8.85;;;6.22;;
21848;SDS011;11089;49.852;19.700;2023-04-24T17:34:57;14.65;;;7.10;;
21848;SDS011;11089;49.852;19.700;2023-04-24T17:37:58;10.63;;;7.28;;
21848;SDS011;11089;49.852;19.700;2023-04-24T17:40:59;13.38;;;7.63;;
21848;SDS011;11089;49.852;19.700;2023-04-24T17:44:00;13.77;;;8.20;;
21848;SDS011;11089;49.852;19.700;2023-04-24T17:47:01;11.52;;;7.70;;
21848;SDS011;11089;49.852;19.700;2023-04-24T17:50:04;8.25;;;6.28;;
21848;SDS011;11089;49.852;19.700;2023-04-24T17:53:05;9.45;;;6.47;;
21848;SDS011;11089;49.852;19.700;2023-04-24T17:56:06;8.20;;;5.90;;
21848;SDS011;11089;49.852;19.700;2023-04-24T17:59:08;9.85;;;5.97;;
21848;SDS011;11089;49.852;19.700;2023-04-24T18:02:09;9.52;;;6.53;;